Time;durP1;ratioP1;P1;durP2;ratioP2;P2;SDS_P1;SDS_P2;PMS_P1;PMS_P2;Temp;Humidity;BMP_temperature;BMP_pressure;BME280_temperature;BME280_humidity;BME280_pressure;Samples;Min_cycle;Max_cycle;Signal;HPM_P1;HPM_P2
2023/03/14 00:01:39;;;;;;;2.47;1.20;;;17.90;63.50;;;;;;5052652;28;20248;-46
2023/03/14 00:04:10;;;;;;;2.87;1.30;;;17.90;63.30;;;;;;5063371;28;20217;-46
2023/03/14 00:06:46;;;;;;;4.23;1.40;;;17.80;63.20;;;;;;5086147;28;20352;-46
2023/03/14 00:09:23;;;;;;;2.20;1.10;;;17.80;63.30;;;;;;5082594;28;20625;-46
2023/03/14 00:11:53;;;;;;;4.27;1.13;;;17.90;63.40;;;;;;5072449;28;20216;-46
2023/03/14 00:14:25;;;;;;;2.20;1.10;;;17.80;63.10;;;;;;5070128;28;20204;-46
2023/03/14 00:16:56;;;;;;;2.00;0.93;;;17.80;63.10;;;;;;5088055;28;20200;-46
2023/03/14 00:19:27;;;;;;;3.83;1.40;;;17.90;63.30;;;;;;5067844;28;20725;-46
2023/03/14 00:21:56;;;;;;;2.97;1.23;;;17.80;63.30;;;;;;5086437;28;20715;-46
2023/03/14 00:24:23;;;;;;;2.17;1.03;;;17.80;63.00;;;;;;5066278;28;20208;-46
2023/03/14 00:26:53;;;;;;;2.77;1.30;;;17.80;63.10;;;;;;5084267;28;20205;-47
2023/03/14 00:29:25;;;;;;;2.20;1.00;;;17.80;63.10;;;;;;5079305;28;20247;-46
2023/03/14 00:31:56;;;;;;;4.73;1.27;;;17.80;63.10;;;;;;5087895;28;20205;-46
2023/03/14 00:34:29;;;;;;;2.43;1.00;;;17.80;63.10;;;;;;5063066;28;20209;-47
2023/03/14 00:36:57;;;;;;;2.30;1.00;;;17.80;63.10;;;;;;5070406;28;20220;-46
2023/03/14 00:39:27;;;;;;;3.13;1.33;;;17.80;63.20;;;;;;5079261;28;20208;-46
2023/03/14 00:41:59;;;;;;;3.17;1.03;;;17.80;63.20;;;;;;5087300;28;20311;-46
2023/03/14 00:44:31;;;;;;;2.13;1.10;;;17.80;62.90;;;;;;5087431;28;20224;-46
2023/03/14 00:47:03;;;;;;;2.90;1.00;;;17.80;63.10;;;;;;5087062;28;20527;-46
2023/03/14 00:49:34;;;;;;;2.17;0.90;;;17.80;62.90;;;;;;5083229;28;20262;-46
2023/03/14 00:52:03;;;;;;;2.33;1.20;;;17.80;63.10;;;;;;5089742;28;20548;-46
2023/03/14 00:54:32;;;;;;;2.10;1.10;;;17.80;63.00;;;;;;5060591;28;20544;-46
2023/03/14 00:57:03;;;;;;;3.10;1.03;;;17.80;63.10;;;;;;5091071;28;20239;-46
2023/03/14 00:59:35;;;;;;;2.63;1.20;;;17.80;63.20;;;;;;5083935;28;20239;-46
2023/03/14 01:02:06;;;;;;;1.70;0.90;;;17.80;63.20;;;;;;5082741;28;20241;-46
2023/03/14 01:04:52;;;;;;;3.00;1.03;;;17.80;63.10;;;;;;5090736;28;20201;-46
2023/03/14 01:07:22;;;;;;;1.83;0.97;;;17.80;63.10;;;;;;5092139;28;20626;-46
2023/03/14 01:09:53;;;;;;;1.77;1.00;;;17.80;63.10;;;;;;5075503;28;20778;-46
2023/03/14 01:12:24;;;;;;;1.60;0.90;;;17.80;63.20;;;;;;5071714;28;20216;-46
2023/03/14 01:14:58;;;;;;;0.97;0.67;;;17.80;63.10;;;;;;5084370;28;20207;-46
2023/03/14 01:17:27;;;;;;;3.40;1.23;;;17.70;63.10;;;;;;5086525;28;20204;-46
2023/03/14 01:19:56;;;;;;;1.40;0.77;;;17.70;63.10;;;;;;5071350;28;20201;-46
2023/03/14 01:22:25;;;;;;;2.00;1.10;;;17.80;63.20;;;;;;5091179;28;20189;-46
2023/03/14 01:24:57;;;;;;;1.63;0.80;;;17.70;63.30;;;;;;5068004;28;20223;-46
2023/03/14 01:27:29;;;;;;;2.23;0.87;;;17.80;63.30;;;;;;5087131;28;20254;-46
2023/03/14 01:30:00;;;;;;;3.17;1.10;;;17.70;63.30;;;;;;5089988;28;20197;-46
2023/03/14 01:32:30;;;;;;;2.30;1.07;;;17.70;63.30;;;;;;5074362;28;20764;-46
2023/03/14 01:35:03;;;;;;;2.13;0.83;;;17.70;63.30;;;;;;5061344;28;20201;-46
2023/03/14 01:37:34;;;;;;;3.07;0.70;;;17.70;63.30;;;;;;5051652;28;20208;-46
2023/03/14 01:40:09;;;;;;;2.90;0.93;;;17.70;63.20;;;;;;5088965;28;20208;-46
2023/03/14 01:42:46;;;;;;;2.53;1.00;;;17.70;63.20;;;;;;5090873;28;20188;-46
2023/03/14 01:45:54;;;;;;;0.73;0.70;;;17.70;63.20;;;;;;5072134;28;20192;-46
2023/03/14 01:48:30;;;;;;;2.10;0.73;;;17.70;63.20;;;;;;5087241;28;20213;-46
2023/03/14 01:51:09;;;;;;;1.40;0.80;;;17.70;63.10;;;;;;5084333;28;20237;-46
2023/03/14 01:53:42;;;;;;;1.97;0.97;;;17.70;63.20;;;;;;5079938;28;20213;-46
2023/03/14 01:56:35;;;;;;;4.87;1.13;;;17.70;63.20;;;;;;5080492;28;20574;-46
2023/03/14 01:59:19;;;;;;;3.37;0.97;;;17.70;63.30;;;;;;5089312;28;20254;-46
2023/03/14 02:01:54;;;;;;;2.33;0.77;;;17.70;63.30;;;;;;5074453;28;20844;-46
2023/03/14 02:04:34;;;;;;;2.23;1.00;;;17.70;63.20;;;;;;5090672;28;20193;-46
2023/03/14 02:07:25;;;;;;;2.67;1.13;;;17.70;63.10;;;;;;5089231;28;20208;-46
2023/03/14 02:10:04;;;;;;;2.30;0.80;;;17.70;63.20;;;;;;5071994;28;20208;-46
2023/03/14 02:12:32;;;;;;;2.10;1.00;;;17.70;63.10;;;;;;5086160;28;20693;-46
2023/03/14 02:15:06;;;;;;;1.93;0.77;;;17.70;63.00;;;;;;5069756;28;20217;-46
2023/03/14 02:17:44;;;;;;;4.60;1.20;;;17.70;63.00;;;;;;5080597;28;20574;-46
2023/03/14 02:20:51;;;;;;;0.90;0.60;;;17.70;63.20;;;;;;5071383;28;20201;-46
2023/03/14 02:23:56;;;;;;;1.70;0.80;;;17.70;63.00;;;;;;5057617;28;20193;-46
2023/03/14 02:27:17;;;;;;;2.30;1.03;;;17.70;63.00;;;;;;5017638;28;20199;-46
2023/03/14 02:30:07;;;;;;;3.93;0.73;;;17.70;63.00;;;;;;5078386;28;20212;-46
2023/03/14 02:32:39;;;;;;;1.93;0.87;;;17.60;63.00;;;;;;5078145;28;20544;-47
2023/03/14 02:35:18;;;;;;;2.77;0.80;;;17.60;63.00;;;;;;5071307;28;20193;-46
2023/03/14 02:38:22;;;;;;;2.67;1.20;;;17.60;63.00;;;;;;5088629;28;20204;-46
2023/03/14 02:40:53;;;;;;;1.63;0.83;;;17.60;62.70;;;;;;5096095;28;20209;-46
2023/03/14 02:43:25;;;;;;;2.23;0.77;;;17.60;62.90;;;;;;5086600;28;20205;-46
2023/03/14 02:45:54;;;;;;;1.40;1.00;;;17.60;62.70;;;;;;5088647;28;20185;-46
2023/03/14 02:48:39;;;;;;;3.50;1.20;;;17.60;62.90;;;;;;5067956;28;20216;-46
2023/03/14 02:51:10;;;;;;;3.07;0.87;;;17.60;62.70;;;;;;5083530;28;20186;-46
2023/03/14 02:53:38;;;;;;;3.07;1.10;;;17.60;62.90;;;;;;5093281;28;20192;-46
2023/03/14 02:56:08;;;;;;;2.27;1.37;;;17.60;62.60;;;;;;5047695;28;20231;-47
2023/03/14 02:58:42;;;;;;;1.73;1.10;;;17.60;63.00;;;;;;5057831;28;20705;-46
2023/03/14 03:01:11;;;;;;;1.90;1.00;;;17.60;62.80;;;;;;5085755;28;20585;-46
2023/03/14 03:03:42;;;;;;;2.60;0.90;;;17.60;62.80;;;;;;5089813;28;20599;-46
2023/03/14 03:06:26;;;;;;;2.83;0.90;;;17.60;62.90;;;;;;5095342;28;20225;-46
2023/03/14 03:09:01;;;;;;;2.07;0.90;;;17.60;62.80;;;;;;5090480;28;20588;-46
2023/03/14 03:11:33;;;;;;;2.30;0.70;;;17.60;62.70;;;;;;5088509;28;20200;-45
2023/03/14 03:14:03;;;;;;;2.90;0.90;;;17.60;63.30;;;;;;5086166;28;20200;-46
2023/03/14 03:16:34;;;;;;;1.63;0.80;;;17.60;62.90;;;;;;5078562;28;20189;-46
2023/03/14 03:19:05;;;;;;;2.13;0.90;;;17.60;62.80;;;;;;5086848;28;20196;-46
2023/03/14 03:21:35;;;;;;;2.20;1.00;;;17.60;62.80;;;;;;5096264;28;20568;-46
2023/03/14 03:24:06;;;;;;;3.27;1.13;;;17.60;62.70;;;;;;5092772;28;20650;-47
2023/03/14 03:26:37;;;;;;;2.83;1.13;;;17.50;62.70;;;;;;5088161;28;20193;-46
2023/03/14 03:29:09;;;;;;;3.17;1.00;;;17.50;62.70;;;;;;5088281;28;20224;-46
2023/03/14 03:31:38;;;;;;;2.13;0.80;;;17.60;62.80;;;;;;5087843;28;20701;-46
2023/03/14 03:34:21;;;;;;;1.80;1.00;;;17.50;62.70;;;;;;5088354;28;20296;-46
2023/03/14 03:36:58;;;;;;;2.60;0.87;;;17.50;62.90;;;;;;5068656;28;20649;-46
2023/03/14 03:39:30;;;;;;;1.93;0.90;;;17.50;62.80;;;;;;5067610;28;20409;-46
2023/03/14 03:42:03;;;;;;;4.47;1.17;;;17.50;62.90;;;;;;5087824;28;20654;-46
2023/03/14 03:44:29;;;;;;;3.30;0.90;;;17.50;62.80;;;;;;5086987;28;20189;-46
2023/03/14 03:46:59;;;;;;;2.20;0.77;;;17.50;62.80;;;;;;5070117;28;20223;-46
2023/03/14 03:49:34;;;;;;;2.97;1.10;;;17.50;62.90;;;;;;5082259;28;20258;-46
2023/03/14 03:52:05;;;;;;;2.53;0.83;;;17.50;62.90;;;;;;5086725;28;20209;-46
2023/03/14 03:54:33;;;;;;;1.90;1.10;;;17.50;62.90;;;;;;5088136;28;20204;-46
2023/03/14 03:57:02;;;;;;;1.70;0.80;;;17.50;62.90;;;;;;5087958;28;20193;-46
2023/03/14 03:59:29;;;;;;;3.70;1.07;;;17.50;62.80;;;;;;5080532;28;20572;-46
2023/03/14 04:02:01;;;;;;;2.60;0.87;;;17.50;62.80;;;;;;5088148;28;20212;-46
2023/03/14 04:04:28;;;;;;;2.17;0.70;;;17.50;62.70;;;;;;5086946;28;20201;-46
2023/03/14 04:07:01;;;;;;;2.63;1.00;;;17.50;62.80;;;;;;5070376;28;20200;-46
2023/03/14 04:09:33;;;;;;;2.10;0.83;;;17.50;62.70;;;;;;5084570;28;20192;-46
2023/03/14 04:12:10;;;;;;;5.70;1.00;;;17.50;62.80;;;;;;5080999;28;20209;-46
2023/03/14 04:14:42;;;;;;;2.93;0.90;;;17.50;62.90;;;;;;5087866;28;20246;-46
2023/03/14 04:17:26;;;;;;;3.27;1.17;;;17.50;63.00;;;;;;5084929;28;20642;-46
2023/03/14 04:19:59;;;;;;;2.57;1.10;;;17.50;62.90;;;;;;5086759;28;20197;-46
2023/03/14 04:22:29;;;;;;;3.77;0.70;;;17.50;62.90;;;;;;5086787;28;20216;-47
2023/03/14 04:25:02;;;;;;;3.90;0.80;;;17.50;62.90;;;;;;5069875;28;20217;-47
2023/03/14 04:27:33;;;;;;;2.47;0.93;;;17.50;62.90;;;;;;5088591;28;20197;-46
2023/03/14 04:30:03;;;;;;;2.47;1.07;;;17.50;62.70;;;;;;5072404;28;20198;-46
2023/03/14 04:32:38;;;;;;;3.23;1.00;;;17.50;62.90;;;;;;5074029;28;20195;-47
2023/03/14 04:35:09;;;;;;;2.23;0.80;;;17.50;62.80;;;;;;5082052;28;20745;-46
2023/03/14 04:37:41;;;;;;;2.47;0.80;;;17.50;62.70;;;;;;5085469;28;20205;-46
2023/03/14 04:40:12;;;;;;;1.93;0.83;;;17.50;62.70;;;;;;5090662;28;20211;-46
2023/03/14 04:42:46;;;;;;;2.80;0.83;;;17.50;62.80;;;;;;5090226;28;20562;-46
2023/03/14 04:45:18;;;;;;;1.93;1.13;;;17.50;62.60;;;;;;5088773;28;20709;-46
2023/03/14 04:47:50;;;;;;;2.07;0.73;;;17.50;62.60;;;;;;5086940;28;20242;-46
2023/03/14 04:50:22;;;;;;;3.37;0.77;;;17.50;62.60;;;;;;5090216;28;20185;-47
2023/03/14 04:52:54;;;;;;;2.63;1.03;;;17.50;62.50;;;;;;5073538;28;20547;-46
2023/03/14 04:55:24;;;;;;;1.40;0.70;;;17.50;62.60;;;;;;5088300;28;20221;-46
2023/03/14 04:57:59;;;;;;;3.03;0.80;;;17.50;62.50;;;;;;5090024;28;20205;-46
2023/03/14 05:00:29;;;;;;;2.37;1.00;;;17.50;62.50;;;;;;5077841;28;20241;-46
2023/03/14 05:03:00;;;;;;;2.83;0.70;;;17.50;62.50;;;;;;5070877;28;20535;-46
2023/03/14 05:05:30;;;;;;;2.33;0.70;;;17.50;62.50;;;;;;5058713;28;20279;-46
2023/03/14 05:07:59;;;;;;;0.60;0.40;;;17.50;62.50;;;;;;5069561;28;20217;-46
2023/03/14 05:10:31;;;;;;;2.73;0.60;;;17.40;62.40;;;;;;5052098;28;20190;-47
2023/03/14 05:13:00;;;;;;;2.00;0.73;;;17.40;62.40;;;;;;5055485;28;20206;-46
2023/03/14 05:15:30;;;;;;;2.17;0.50;;;17.40;62.50;;;;;;5062272;28;20237;-46
2023/03/14 05:17:58;;;;;;;1.50;0.50;;;17.40;62.40;;;;;;5061769;28;20198;-46
2023/03/14 05:20:30;;;;;;;1.03;0.50;;;17.40;62.40;;;;;;5069335;28;20350;-46
2023/03/14 05:23:00;;;;;;;1.50;0.70;;;17.40;62.30;;;;;;5053783;28;20222;-46
2023/03/14 05:25:43;;;;;;;1.60;0.70;;;17.40;62.40;;;;;;5066863;28;20202;-46
2023/03/14 05:28:14;;;;;;;3.23;0.40;;;17.40;62.40;;;;;;5051989;28;20194;-46
2023/03/14 05:30:49;;;;;;;1.97;0.60;;;17.40;62.40;;;;;;5069280;28;20197;-46
2023/03/14 05:33:20;;;;;;;1.37;0.50;;;17.40;62.40;;;;;;5066713;28;20194;-46
2023/03/14 05:35:51;;;;;;;1.67;0.60;;;17.40;62.40;;;;;;5050281;28;20220;-46
2023/03/14 05:38:21;;;;;;;1.57;0.60;;;17.40;62.40;;;;;;5065388;28;20600;-46
2023/03/14 05:40:52;;;;;;;1.73;0.70;;;17.40;62.40;;;;;;5064418;28;20216;-46
2023/03/14 05:43:19;;;;;;;3.93;0.90;;;17.40;62.30;;;;;;5066404;28;20237;-46
2023/03/14 05:45:47;;;;;;;2.93;0.70;;;17.40;62.30;;;;;;5035817;28;20209;-46
2023/03/14 05:48:16;;;;;;;1.73;0.43;;;17.40;62.40;;;;;;5048328;28;20214;-46
2023/03/14 05:50:50;;;;;;;2.37;0.90;;;17.40;62.30;;;;;;5069509;28;20558;-46
2023/03/14 05:53:20;;;;;;;1.00;0.60;;;17.40;62.30;;;;;;5049732;28;20255;-46
2023/03/14 05:55:56;;;;;;;1.23;0.47;;;17.40;62.30;;;;;;5068780;28;20201;-46
2023/03/14 05:58:26;;;;;;;1.47;0.50;;;17.40;62.20;;;;;;5051859;28;20225;-46
2023/03/14 06:00:53;;;;;;;1.73;0.60;;;17.30;62.10;;;;;;5064438;28;20233;-46
2023/03/14 06:03:21;;;;;;;1.77;0.93;;;17.40;62.30;;;;;;5065817;28;20210;-46
2023/03/14 06:06:04;;;;;;;1.93;0.60;;;17.40;62.20;;;;;;5046193;28;20639;-46
2023/03/14 06:08:36;;;;;;;2.27;0.80;;;17.40;62.20;;;;;;5064324;28;20218;-46
2023/03/14 06:11:09;;;;;;;3.27;1.07;;;17.30;62.20;;;;;;5051015;28;20205;-46
2023/03/14 06:13:38;;;;;;;1.67;0.50;;;17.30;62.20;;;;;;5063806;28;20202;-46
2023/03/14 06:16:11;;;;;;;2.83;0.73;;;17.40;62.30;;;;;;5066204;28;20190;-47
2023/03/14 06:18:41;;;;;;;1.70;0.77;;;17.40;62.30;;;;;;5045147;28;20576;-47
2023/03/14 06:21:13;;;;;;;0.80;0.50;;;17.40;62.30;;;;;;5045443;28;20214;-46
2023/03/14 06:23:46;;;;;;;1.23;0.70;;;17.40;62.40;;;;;;5066000;28;20258;-46
2023/03/14 06:26:17;;;;;;;3.83;0.90;;;17.40;62.30;;;;;;5069326;28;20194;-46
2023/03/14 06:28:47;;;;;;;2.43;0.80;;;17.40;62.30;;;;;;5069070;28;20192;-46
2023/03/14 06:31:19;;;;;;;3.53;0.80;;;17.40;62.20;;;;;;5059831;28;20191;-46
2023/03/14 06:33:48;;;;;;;2.77;0.67;;;17.40;62.30;;;;;;5067385;28;20631;-47
2023/03/14 06:36:18;;;;;;;1.83;0.50;;;17.30;62.20;;;;;;5045743;28;20766;-46
2023/03/14 06:38:49;;;;;;;1.37;0.57;;;17.40;62.20;;;;;;5054656;28;20253;-46
2023/03/14 06:41:19;;;;;;;3.17;0.90;;;17.40;62.40;;;;;;5061934;28;20198;-46
2023/03/14 06:43:49;;;;;;;1.13;0.53;;;17.30;62.10;;;;;;5045026;28;20185;-46
2023/03/14 06:46:19;;;;;;;1.57;0.77;;;17.40;62.20;;;;;;5047253;28;20193;-46
2023/03/14 06:48:48;;;;;;;2.30;0.60;;;17.40;62.20;;;;;;5046067;28;20202;-46
2023/03/14 06:51:18;;;;;;;2.60;0.47;;;17.40;62.20;;;;;;5064272;28;20733;-46
2023/03/14 06:53:49;;;;;;;2.23;0.87;;;17.40;62.30;;;;;;5051454;28;20438;-47
2023/03/14 06:56:21;;;;;;;1.73;0.70;;;17.40;62.20;;;;;;5067892;28;20189;-46
2023/03/14 06:58:51;;;;;;;0.77;0.50;;;17.40;62.30;;;;;;5068320;28;20202;-46
2023/03/14 07:01:30;;;;;;;1.57;0.80;;;17.40;62.10;;;;;;5082099;28;20217;-47
2023/03/14 07:04:02;;;;;;;1.53;0.60;;;17.40;62.20;;;;;;5070626;28;20203;-46
2023/03/14 07:06:36;;;;;;;1.00;0.60;;;17.40;62.00;;;;;;5076963;28;20196;-46
2023/03/14 07:09:05;;;;;;;2.80;0.70;;;17.40;62.30;;;;;;5066270;28;20197;-46
2023/03/14 07:11:34;;;;;;;1.63;0.97;;;17.40;62.20;;;;;;5060621;28;20228;-46
2023/03/14 07:14:04;;;;;;;1.93;0.63;;;17.40;62.10;;;;;;5090217;28;20197;-47
2023/03/14 07:16:37;;;;;;;1.83;0.90;;;17.40;62.20;;;;;;5068308;28;20200;-46
2023/03/14 07:19:09;;;;;;;3.00;1.00;;;17.40;62.10;;;;;;5079833;28;20216;-46
2023/03/14 07:21:38;;;;;;;2.20;0.70;;;17.40;62.10;;;;;;5071203;28;20185;-46
2023/03/14 07:24:07;;;;;;;2.90;1.20;;;17.40;62.10;;;;;;5072259;28;20685;-47
2023/03/14 07:26:38;;;;;;;2.83;0.97;;;17.40;62.10;;;;;;5071581;28;20193;-46
2023/03/14 07:29:06;;;;;;;3.07;1.10;;;17.40;62.00;;;;;;5078051;28;20193;-46
2023/03/14 07:31:39;;;;;;;2.97;1.03;;;17.40;62.00;;;;;;5077222;28;20224;-46
2023/03/14 07:34:13;;;;;;;1.90;1.00;;;17.40;62.30;;;;;;5087754;28;20201;-46
2023/03/14 07:36:43;;;;;;;1.80;1.13;;;17.40;62.10;;;;;;5079918;28;20282;-46
2023/03/14 07:39:15;;;;;;;2.50;1.30;;;17.40;62.30;;;;;;5076431;28;20186;-46
2023/03/14 07:41:47;;;;;;;2.17;0.87;;;17.50;62.20;;;;;;5069478;28;20194;-46
2023/03/14 07:44:20;;;;;;;5.23;1.90;;;17.40;62.10;;;;;;5075496;28;20194;-46
2023/03/14 07:46:50;;;;;;;49.80;11.87;;;17.40;62.20;;;;;;5079991;28;20197;-46
2023/03/14 07:49:23;;;;;;;112.10;26.97;;;17.50;62.90;;;;;;5077657;28;20205;-46
2023/03/14 07:51:55;;;;;;;208.57;47.07;;;17.50;63.10;;;;;;5080117;28;20200;-46
2023/03/14 07:54:27;;;;;;;205.67;47.00;;;17.50;63.20;;;;;;5067273;28;20597;-46
2023/03/14 07:56:58;;;;;;;201.17;49.60;;;17.50;62.90;;;;;;5074021;28;20209;-46
2023/03/14 07:59:32;;;;;;;201.47;44.27;;;17.50;63.30;;;;;;5044898;28;20197;-47
2023/03/14 08:02:05;;;;;;;164.87;41.67;;;17.50;63.30;;;;;;5087102;28;20237;-46
2023/03/14 08:04:40;;;;;;;138.67;34.03;;;17.60;63.80;;;;;;5073306;28;20185;-47
2023/03/14 08:07:09;;;;;;;120.07;28.60;;;17.70;63.70;;;;;;5067626;28;20275;-46
2023/03/14 08:09:40;;;;;;;119.00;28.03;;;17.80;63.30;;;;;;5061040;28;20214;-46
2023/03/14 08:12:10;;;;;;;89.47;24.30;;;17.80;63.30;;;;;;5049178;28;20231;-46
2023/03/14 08:14:42;;;;;;;85.73;24.87;;;17.90;63.20;;;;;;5067275;28;20198;-46
2023/03/14 08:17:12;;;;;;;87.10;23.00;;;18.00;63.20;;;;;;5082184;28;20698;-46
2023/03/14 08:19:45;;;;;;;74.20;21.53;;;18.00;62.80;;;;;;5062307;28;20659;-47
2023/03/14 08:22:15;;;;;;;65.00;18.70;;;18.10;62.50;;;;;;5070391;28;20657;-47
2023/03/14 08:24:51;;;;;;;70.67;18.97;;;18.10;62.30;;;;;;5058580;28;20196;-46
2023/03/14 08:27:20;;;;;;;64.20;17.43;;;18.20;62.10;;;;;;5082415;28;20189;-48
2023/03/14 08:29:58;;;;;;;53.70;15.93;;;18.30;61.90;;;;;;5072695;28;20643;-46
2023/03/14 08:32:27;;;;;;;44.63;14.77;;;18.30;61.60;;;;;;5079378;28;20214;-47
2023/03/14 08:34:58;;;;;;;38.53;12.13;;;18.40;61.50;;;;;;5078086;28;20196;-46
2023/03/14 08:37:30;;;;;;;43.97;13.37;;;18.50;61.40;;;;;;5063589;28;20209;-47
2023/03/14 08:40:08;;;;;;;42.10;11.67;;;18.60;61.70;;;;;;5039904;28;20210;-47
2023/03/14 08:42:40;;;;;;;44.87;11.40;;;18.60;61.50;;;;;;5066861;28;20209;-47
2023/03/14 08:45:11;;;;;;;36.60;10.80;;;18.70;61.10;;;;;;5065053;28;20201;-48
2023/03/14 08:47:38;;;;;;;31.53;9.57;;;18.70;61.00;;;;;;5045980;28;20574;-47
2023/03/14 08:50:10;;;;;;;31.10;9.20;;;18.80;60.80;;;;;;5068320;28;20205;-47
2023/03/14 08:52:58;;;;;;;29.60;9.17;;;18.90;60.50;;;;;;5071947;28;20200;-47
2023/03/14 08:55:29;;;;;;;24.03;7.70;;;18.90;60.10;;;;;;5074675;28;20686;-48
2023/03/14 08:57:57;;;;;;;22.27;6.73;;;19.00;59.60;;;;;;5057538;28;20581;-48
2023/03/14 09:00:28;;;;;;;18.63;7.23;;;19.10;59.60;;;;;;5077249;28;20254;-48
2023/03/14 09:02:59;;;;;;;23.70;6.93;;;19.10;59.30;;;;;;5084799;28;20449;-48
2023/03/14 09:05:28;;;;;;;15.07;5.63;;;19.20;59.20;;;;;;5072266;28;20205;-48
2023/03/14 09:07:59;;;;;;;16.17;5.87;;;19.20;58.70;;;;;;5070004;28;20201;-47
2023/03/14 09:10:27;;;;;;;12.27;4.67;;;19.30;58.60;;;;;;5088906;28;20201;-47
2023/03/14 09:13:00;;;;;;;15.50;4.20;;;19.30;58.70;;;;;;5058541;28;20221;-47
2023/03/14 09:15:29;;;;;;;12.07;4.43;;;19.30;59.00;;;;;;5080915;28;20818;-48
2023/03/14 09:17:59;;;;;;;9.87;4.37;;;19.40;58.40;;;;;;5078015;28;20216;-48
2023/03/14 09:20:30;;;;;;;11.47;3.40;;;19.40;58.40;;;;;;5070119;28;20205;-47
2023/03/14 09:23:02;;;;;;;10.57;3.70;;;19.40;58.20;;;;;;5085439;28;20682;-47
2023/03/14 09:25:33;;;;;;;11.50;3.20;;;19.50;58.20;;;;;;5085383;28;20213;-47
2023/03/14 09:28:03;;;;;;;10.37;3.60;;;19.50;58.20;;;;;;5078990;28;20255;-47
2023/03/14 09:30:32;;;;;;;7.93;2.50;;;19.60;58.00;;;;;;5061879;28;20698;-47
2023/03/14 09:33:03;;;;;;;7.70;2.63;;;19.50;57.80;;;;;;5078856;28;20197;-48
2023/03/14 09:35:36;;;;;;;8.13;2.70;;;19.60;57.90;;;;;;5083485;28;20201;-47
2023/03/14 09:38:07;;;;;;;7.93;2.50;;;19.60;57.50;;;;;;5088612;28;20221;-48
2023/03/14 09:40:38;;;;;;;6.90;2.57;;;19.70;57.80;;;;;;5073022;28;20213;-47
2023/03/14 09:43:11;;;;;;;4.73;1.80;;;19.70;57.70;;;;;;5060217;28;20210;-47
2023/03/14 09:45:47;;;;;;;4.20;1.93;;;19.70;57.70;;;;;;5069372;28;20231;-46
2023/03/14 09:48:27;;;;;;;4.40;1.87;;;19.70;57.60;;;;;;5068844;28;20209;-46
2023/03/14 09:50:59;;;;;;;7.33;2.23;;;19.70;57.50;;;;;;5070838;28;20247;-48
2023/03/14 09:53:49;;;;;;;3.33;1.53;;;19.70;57.40;;;;;;5065894;28;20277;-47
2023/03/14 09:56:32;;;;;;;4.03;1.40;;;19.70;57.20;;;;;;5083590;28;20606;-48
2023/03/14 09:59:05;;;;;;;4.73;1.57;;;19.80;56.80;;;;;;5072475;28;20200;-47
2023/03/14 10:01:34;;;;;;;3.47;1.23;;;19.80;55.80;;;;;;5049677;28;20225;-46
2023/03/14 10:04:14;;;;;;;3.47;1.20;;;19.70;55.20;;;;;;5080947;28;20204;-46
2023/03/14 10:06:47;;;;;;;3.73;1.00;;;19.60;54.90;;;;;;5078237;28;20192;-47
2023/03/14 10:09:25;;;;;;;5.43;1.17;;;19.60;55.30;;;;;;5086928;28;20193;-47
2023/03/14 10:11:59;;;;;;;2.23;0.93;;;19.40;55.10;;;;;;5086434;28;20221;-46
2023/03/14 10:14:45;;;;;;;2.93;1.20;;;19.30;55.50;;;;;;5073268;28;20526;-46
2023/03/14 10:17:19;;;;;;;2.00;0.77;;;19.20;55.40;;;;;;5073131;28;20201;-46
2023/03/14 10:20:00;;;;;;;2.10;0.93;;;19.10;55.40;;;;;;5081373;28;20312;-46
2023/03/14 10:22:31;;;;;;;4.23;0.90;;;19.10;55.90;;;;;;5089300;28;20219;-46
2023/03/14 10:25:09;;;;;;;2.60;0.77;;;19.00;56.30;;;;;;5056276;28;20229;-45
2023/03/14 10:27:39;;;;;;;1.67;0.70;;;18.90;56.10;;;;;;5058410;28;20752;-47
2023/03/14 10:30:45;;;;;;;3.17;1.10;;;18.80;56.30;;;;;;5086938;28;20185;-46
2023/03/14 10:33:26;;;;;;;1.57;0.80;;;18.80;56.50;;;;;;5059648;28;20653;-45
2023/03/14 10:36:05;;;;;;;2.03;0.70;;;18.70;56.40;;;;;;5085385;28;20238;-47
2023/03/14 10:38:41;;;;;;;3.23;1.00;;;18.70;56.60;;;;;;5072839;28;20189;-46
2023/03/14 10:41:30;;;;;;;2.50;0.80;;;18.60;56.50;;;;;;5088234;28;20197;-45
2023/03/14 10:44:01;;;;;;;1.43;0.63;;;18.60;56.70;;;;;;5053906;28;20214;-46
2023/03/14 10:46:33;;;;;;;2.43;0.80;;;18.50;56.40;;;;;;5088249;28;20185;-46
2023/03/14 10:49:35;;;;;;;2.37;0.93;;;18.50;56.00;;;;;;5055297;28;20297;-46
2023/03/14 10:52:25;;;;;;;2.17;0.60;;;18.40;56.20;;;;;;5064979;28;20197;-46
2023/03/14 10:55:16;;;;;;;1.43;0.60;;;18.40;56.10;;;;;;5059977;28;20201;-46
2023/03/14 10:57:45;;;;;;;2.53;0.73;;;18.30;56.20;;;;;;5092816;28;20564;-47
2023/03/14 11:00:24;;;;;;;2.23;0.80;;;18.30;56.40;;;;;;5077035;28;20713;-46
2023/03/14 11:03:12;;;;;;;2.43;0.80;;;18.30;56.50;;;;;;5091154;28;20242;-47
2023/03/14 11:06:30;;;;;;;1.43;0.47;;;18.20;56.50;;;;;;5075252;28;20201;-45
2023/03/14 11:09:18;;;;;;;4.07;1.00;;;18.20;56.60;;;;;;5024563;28;20234;-45
2023/03/14 11:11:48;;;;;;;2.83;1.00;;;18.20;56.50;;;;;;5064442;28;20228;-47
2023/03/14 11:14:38;;;;;;;3.40;0.83;;;18.20;56.60;;;;;;5066481;28;20190;-46
2023/03/14 11:17:26;;;;;;;2.57;1.00;;;18.10;56.50;;;;;;5086098;28;20201;-46
2023/03/14 11:20:25;;;;;;;3.73;1.00;;;18.10;56.30;;;;;;5084433;28;20638;-47
2023/03/14 11:23:11;;;;;;;5.47;1.00;;;18.10;56.30;;;;;;5088589;28;20289;-46
2023/03/14 11:26:12;;;;;;;3.67;1.00;;;18.00;56.40;;;;;;5066417;28;20216;-47
2023/03/14 11:28:48;;;;;;;6.03;1.37;;;18.00;56.00;;;;;;5088323;28;20186;-47
2023/03/14 11:31:32;;;;;;;5.80;1.20;;;18.00;56.10;;;;;;5049969;28;20184;-47
2023/03/14 11:34:36;;;;;;;4.27;1.10;;;18.00;56.40;;;;;;5069541;28;20209;-47
2023/03/14 11:37:14;;;;;;;5.60;1.17;;;18.00;56.20;;;;;;5097198;28;20286;-47
2023/03/14 11:40:04;;;;;;;4.73;0.97;;;17.90;55.90;;;;;;5084997;28;20186;-46
2023/03/14 11:42:41;;;;;;;5.43;1.70;;;17.90;56.00;;;;;;5088340;28;20197;-46
2023/03/14 11:45:35;;;;;;;4.77;1.60;;;17.90;55.80;;;;;;5086730;28;20289;-47
2023/03/14 11:48:39;;;;;;;4.70;1.40;;;17.90;55.80;;;;;;5081764;28;20208;-47
2023/03/14 11:51:33;;;;;;;5.73;1.23;;;17.80;55.70;;;;;;5030086;28;20276;-46
2023/03/14 11:54:36;;;;;;;4.40;1.57;;;17.80;55.70;;;;;;5028569;28;20600;-46
2023/03/14 11:57:18;;;;;;;5.10;1.50;;;17.80;55.80;;;;;;5012091;28;20206;-47
2023/03/14 12:00:15;;;;;;;5.27;1.40;;;17.80;56.00;;;;;;5018250;28;20235;-46
2023/03/14 12:03:21;;;;;;;4.43;1.40;;;17.70;56.00;;;;;;5047293;28;20249;-47
2023/03/14 12:06:27;;;;;;;6.13;1.53;;;17.70;56.30;;;;;;5064081;28;20228;-45
2023/03/14 12:09:04;;;;;;;3.83;1.23;;;17.70;56.50;;;;;;5063168;28;20186;-45
2023/03/14 12:11:56;;;;;;;3.83;1.50;;;17.70;56.70;;;;;;5047796;28;20197;-45
2023/03/14 12:14:44;;;;;;;5.07;1.20;;;17.70;56.90;;;;;;5063219;28;20206;-46
2023/03/14 12:17:21;;;;;;;3.90;1.23;;;17.70;57.10;;;;;;5061648;28;20225;-46
2023/03/14 12:20:06;;;;;;;7.53;1.70;;;17.70;57.20;;;;;;5059626;28;20182;-46
2023/03/14 12:22:48;;;;;;;6.80;1.60;;;17.70;57.30;;;;;;5045549;28;20220;-46
2023/03/14 12:25:30;;;;;;;4.47;1.50;;;17.70;57.50;;;;;;5048395;28;20201;-46
2023/03/14 12:28:30;;;;;;;5.33;1.70;;;17.70;57.70;;;;;;5053256;28;20280;-45
2023/03/14 12:31:36;;;;;;;6.13;1.40;;;17.60;57.40;;;;;;5058470;28;20525;-45
2023/03/14 12:34:14;;;;;;;5.37;1.37;;;17.60;57.30;;;;;;5067274;28;20537;-45
2023/03/14 12:37:20;;;;;;;5.73;1.60;;;17.60;56.90;;;;;;5073580;28;20207;-45
2023/03/14 12:40:18;;;;;;;3.27;1.40;;;17.60;56.60;;;;;;5067272;28;20237;-46
2023/03/14 12:43:34;;;;;;;4.53;1.50;;;17.60;56.90;;;;;;5068111;28;20202;-46
2023/03/14 12:46:22;;;;;;;5.57;1.40;;;17.60;56.90;;;;;;5063456;28;20190;-45
2023/03/14 12:49:08;;;;;;;5.20;1.60;;;17.50;56.90;;;;;;5070910;28;20221;-46
2023/03/14 12:51:45;;;;;;;3.93;1.60;;;17.50;56.80;;;;;;5030030;28;20268;-46
2023/03/14 12:54:47;;;;;;;8.07;1.63;;;17.50;56.80;;;;;;5037075;28;20627;-45
2023/03/14 12:57:14;;;;;;;6.73;1.87;;;17.50;56.70;;;;;;5055257;28;20217;-45
2023/03/14 12:59:59;;;;;;;6.10;1.57;;;17.50;56.60;;;;;;5069140;28;20201;-45
2023/03/14 13:02:43;;;;;;;7.97;1.87;;;17.50;56.50;;;;;;5068076;28;20264;-46
2023/03/14 13:05:24;;;;;;;5.23;1.50;;;17.50;56.60;;;;;;5072022;28;20210;-47
2023/03/14 13:08:02;;;;;;;5.20;1.40;;;17.50;56.60;;;;;;5077906;28;20202;-47
2023/03/14 13:10:39;;;;;;;6.60;1.73;;;17.50;56.60;;;;;;5070867;28;20224;-47
2023/03/14 13:13:28;;;;;;;7.23;1.80;;;17.50;56.60;;;;;;5038530;28;20202;-47
2023/03/14 13:16:21;;;;;;;10.60;1.80;;;17.40;56.50;;;;;;5054456;28;20803;-47
2023/03/14 13:19:18;;;;;;;7.10;2.20;;;17.40;56.30;;;;;;5069264;28;20298;-47
2023/03/14 13:21:50;;;;;;;4.30;1.60;;;17.40;56.10;;;;;;5057400;28;20235;-47
2023/03/14 13:24:27;;;;;;;6.40;1.63;;;17.40;56.20;;;;;;5044547;28;20205;-47
2023/03/14 13:26:58;;;;;;;6.97;2.00;;;17.40;56.10;;;;;;5063077;28;20681;-47
2023/03/14 13:29:32;;;;;;;5.03;1.57;;;17.40;55.50;;;;;;5067836;28;20193;-47
2023/03/14 13:32:25;;;;;;;5.23;1.57;;;17.40;55.40;;;;;;5052841;28;20197;-47